createdAt,value
2022-11-23T00:02:23.591Z,4.73
2022-11-23T00:04:50.261Z,4.33
2022-11-23T00:07:17.083Z,3.47
2022-11-23T00:09:43.781Z,3.93
2022-11-23T00:12:10.518Z,4.10
2022-11-23T00:14:37.285Z,3.57
2022-11-23T00:17:04.338Z,4.10
2022-11-23T00:19:31.238Z,4.60
2022-11-23T00:21:58.310Z,3.87
2022-11-23T00:24:25.037Z,4.00
2022-11-23T00:26:51.699Z,4.27
2022-11-23T00:29:18.349Z,4.30
2022-11-23T00:31:45.018Z,3.63
2022-11-23T00:34:11.662Z,4.17
2022-11-23T00:36:38.336Z,3.63
2022-11-23T00:39:04.993Z,3.90
2022-11-23T00:41:31.665Z,3.67
2022-11-23T00:43:58.499Z,4.13
2022-11-23T00:46:27.779Z,3.73
2022-11-23T00:48:56.391Z,4.07
2022-11-23T00:51:27.966Z,3.80
2022-11-23T00:53:55.085Z,3.60
2022-11-23T00:56:21.840Z,4.37
2022-11-23T00:58:59.149Z,3.77
2022-11-23T01:01:29.139Z,3.37
2022-11-23T01:03:58.253Z,3.30
2022-11-23T01:06:30.269Z,3.00
2022-11-23T01:09:02.352Z,3.53
2022-11-23T01:11:30.985Z,3.73
2022-11-23T01:13:58.269Z,3.77
2022-11-23T01:16:30.606Z,4.10
2022-11-23T01:18:59.851Z,2.73
2022-11-23T01:21:28.058Z,3.70
2022-11-23T01:23:55.223Z,3.80
2022-11-23T01:26:22.162Z,3.33
2022-11-23T01:28:49.483Z,3.00
2022-11-23T01:31:21.462Z,3.90
2022-11-23T01:33:52.661Z,3.60
2022-11-23T01:36:22.166Z,3.87
2022-11-23T01:38:49.222Z,3.70
2022-11-23T01:41:18.776Z,4.00
2022-11-23T01:43:45.849Z,4.50
2022-11-23T01:46:13.029Z,4.13
2022-11-23T01:49:00.753Z,4.20
2022-11-23T01:51:35.572Z,4.13
2022-11-23T01:54:08.637Z,3.37
2022-11-23T01:56:44.142Z,3.83
2022-11-23T01:59:16.381Z,3.40
2022-11-23T02:01:43.951Z,3.93
2022-11-23T02:04:16.587Z,3.87
2022-11-23T02:06:46.368Z,3.33
2022-11-23T02:09:14.354Z,3.70
2022-11-23T02:11:41.113Z,4.07
2022-11-23T02:14:08.816Z,3.20
2022-11-23T02:16:37.770Z,3.50
2022-11-23T02:19:11.298Z,3.53
2022-11-23T02:21:39.153Z,3.30
2022-11-23T02:24:23.836Z,3.70
2022-11-23T02:26:50.839Z,3.83
2022-11-23T02:29:22.243Z,3.17
2022-11-23T02:31:49.020Z,3.50
2022-11-23T02:34:17.222Z,4.23
2022-11-23T02:36:48.170Z,3.33
2022-11-23T02:39:41.888Z,3.43
2022-11-23T02:42:08.520Z,3.67
2022-11-23T02:45:00.088Z,3.37
2022-11-23T02:47:26.755Z,3.80
2022-11-23T02:49:53.407Z,3.30
2022-11-23T02:52:20.068Z,3.83
2022-11-23T02:54:47.155Z,3.93
2022-11-23T02:57:13.841Z,3.23
2022-11-23T02:59:40.504Z,3.40
2022-11-23T03:02:07.171Z,3.07
2022-11-23T03:04:33.830Z,3.30
2022-11-23T03:07:00.528Z,3.00
2022-11-23T03:09:28.175Z,3.90
2022-11-23T03:11:55.004Z,3.07
2022-11-23T03:14:22.026Z,3.57
2022-11-23T03:16:48.680Z,3.23
2022-11-23T03:19:15.536Z,2.90
2022-11-23T03:21:42.321Z,3.10
2022-11-23T03:24:08.942Z,3.40
2022-11-23T03:26:35.786Z,3.40
2022-11-23T03:29:02.427Z,3.13
2022-11-23T03:31:29.211Z,3.13
2022-11-23T03:33:55.955Z,3.23
2022-11-23T03:36:22.667Z,3.10
2022-11-23T03:38:49.414Z,3.47
2022-11-23T03:41:16.041Z,5.33
2022-11-23T03:43:42.647Z,3.30
2022-11-23T03:46:09.317Z,3.20
2022-11-23T03:48:35.902Z,3.87
2022-11-23T03:51:02.575Z,3.50
2022-11-23T03:53:29.386Z,3.83
2022-11-23T03:55:57.507Z,3.37
2022-11-23T03:58:24.431Z,3.50
2022-11-23T04:00:51.154Z,3.00
2022-11-23T04:03:17.840Z,3.27
2022-11-23T04:05:44.616Z,3.30
2022-11-23T04:08:11.306Z,3.97
2022-11-23T04:10:37.902Z,3.77
2022-11-23T04:13:05.092Z,3.20
2022-11-23T04:15:31.786Z,3.40
2022-11-23T04:17:58.575Z,3.57
2022-11-23T04:20:25.454Z,3.40
2022-11-23T04:22:52.116Z,3.47
2022-11-23T04:25:18.848Z,3.63
2022-11-23T04:27:46.175Z,4.50
2022-11-23T04:30:13.143Z,3.57
2022-11-23T04:32:39.888Z,3.03
2022-11-23T04:35:06.738Z,3.33
2022-11-23T04:37:33.495Z,3.60
2022-11-23T04:40:00.157Z,3.93
2022-11-23T04:42:26.756Z,4.10
2022-11-23T04:44:53.481Z,4.43
2022-11-23T04:47:20.085Z,3.30
2022-11-23T04:49:46.710Z,3.50
2022-11-23T04:52:13.489Z,4.00
2022-11-23T04:54:40.095Z,4.57
2022-11-23T04:57:06.710Z,3.83
2022-11-23T04:59:33.662Z,4.20
2022-11-23T05:02:00.515Z,3.00
2022-11-23T05:04:27.198Z,3.63
2022-11-23T05:06:53.897Z,4.27
2022-11-23T05:09:20.555Z,3.80
2022-11-23T05:11:47.430Z,3.90
2022-11-23T05:14:14.200Z,4.70
2022-11-23T05:16:41.494Z,4.77
2022-11-23T05:19:08.462Z,3.87
2022-11-23T05:21:35.195Z,3.67
2022-11-23T05:24:01.819Z,3.63
2022-11-23T05:26:28.493Z,3.87
2022-11-23T05:28:55.092Z,5.20
2022-11-23T05:31:21.765Z,3.80
2022-11-23T05:33:48.373Z,4.57
2022-11-23T05:36:15.080Z,5.37
2022-11-23T05:38:42.182Z,3.87
2022-11-23T05:41:08.882Z,5.97
2022-11-23T05:43:35.618Z,4.90
2022-11-23T05:46:02.885Z,3.33
2022-11-23T05:48:29.460Z,3.83
2022-11-23T05:50:58.638Z,3.60
2022-11-23T05:53:29.121Z,3.43
2022-11-23T05:56:02.088Z,3.50
2022-11-23T05:58:29.495Z,3.83
2022-11-23T06:01:00.303Z,3.70
2022-11-23T06:03:27.047Z,2.80
2022-11-23T06:05:53.691Z,4.20
2022-11-23T06:08:20.507Z,4.10
2022-11-23T06:10:47.245Z,3.17
2022-11-23T06:13:13.965Z,4.03
2022-11-23T06:15:40.566Z,3.43
2022-11-23T06:18:07.193Z,4.13
2022-11-23T06:20:36.701Z,3.50
2022-11-23T06:23:03.494Z,3.60
2022-11-23T06:25:30.223Z,3.10
2022-11-23T06:27:59.132Z,3.80
2022-11-23T06:30:26.879Z,2.97
2022-11-23T06:32:53.723Z,3.33
2022-11-23T06:35:20.397Z,3.67
2022-11-23T06:37:51.325Z,3.10
2022-11-23T06:40:18.361Z,3.63
2022-11-23T06:42:45.265Z,3.73
2022-11-23T06:45:12.658Z,4.27
2022-11-23T06:47:39.453Z,3.43
2022-11-23T06:50:07.116Z,3.90
2022-11-23T06:52:33.830Z,4.33
2022-11-23T06:55:00.713Z,3.43
2022-11-23T06:57:27.382Z,3.63
2022-11-23T06:59:54.292Z,3.90
2022-11-23T07:02:21.008Z,3.60
2022-11-23T07:04:47.836Z,3.63
2022-11-23T07:07:14.582Z,3.43
2022-11-23T07:09:41.260Z,3.40
2022-11-23T07:12:08.083Z,3.77
2022-11-23T07:14:35.061Z,3.20
2022-11-23T07:17:01.957Z,3.90
2022-11-23T07:19:28.559Z,4.03
2022-11-23T07:21:55.184Z,3.20
2022-11-23T07:24:21.887Z,3.13
2022-11-23T07:26:48.492Z,3.70
2022-11-23T07:29:15.130Z,3.57
2022-11-23T07:31:41.739Z,3.27
2022-11-23T07:34:11.000Z,3.83
2022-11-23T07:36:37.940Z,4.27
2022-11-23T07:39:04.660Z,5.60
2022-11-23T07:41:31.308Z,3.73
2022-11-23T07:43:57.958Z,4.70
2022-11-23T07:46:24.990Z,4.13
2022-11-23T07:48:51.792Z,3.63
2022-11-23T07:51:20.080Z,4.00
2022-11-23T07:53:47.290Z,4.57
2022-11-23T07:56:13.932Z,4.70
2022-11-23T07:58:40.894Z,3.73
2022-11-23T08:01:07.568Z,4.07
2022-11-23T08:03:34.839Z,5.67
2022-11-23T08:06:01.531Z,4.63
2022-11-23T08:08:28.394Z,4.77
2022-11-23T08:10:55.175Z,6.40
2022-11-23T08:13:22.825Z,4.60
2022-11-23T08:15:54.924Z,4.90
2022-11-23T08:18:25.868Z,4.90
2022-11-23T08:20:53.493Z,4.73
2022-11-23T08:23:20.451Z,4.40
2022-11-23T08:25:47.452Z,5.00
2022-11-23T08:28:14.249Z,4.00
2022-11-23T08:30:40.909Z,3.80
2022-11-23T08:33:08.924Z,4.33
2022-11-23T08:35:40.173Z,4.37
2022-11-23T08:38:08.326Z,4.60
2022-11-23T08:40:36.680Z,4.00
2022-11-23T08:43:04.058Z,4.33
2022-11-23T08:45:31.102Z,3.97
2022-11-23T08:48:01.847Z,4.30
2022-11-23T08:50:29.336Z,4.40
2022-11-23T08:53:00.363Z,3.73
2022-11-23T08:55:27.712Z,3.50
2022-11-23T08:57:59.355Z,3.70
2022-11-23T09:00:27.158Z,3.83
2022-11-23T09:02:54.623Z,3.20
2022-11-23T09:05:21.776Z,3.50
2022-11-23T09:07:48.534Z,3.67
2022-11-23T09:10:18.808Z,3.13
2022-11-23T09:12:46.928Z,3.10
2022-11-23T09:15:14.080Z,3.30
2022-11-23T09:17:40.870Z,4.13
2022-11-23T09:20:08.276Z,3.17
2022-11-23T09:22:34.874Z,3.50
2022-11-23T09:25:01.816Z,2.97
2022-11-23T09:27:28.782Z,3.70
2022-11-23T09:29:55.385Z,3.37
2022-11-23T09:32:22.177Z,3.87
2022-11-23T09:34:48.780Z,3.70
2022-11-23T09:37:15.668Z,3.37
2022-11-23T09:39:42.412Z,3.03
2022-11-23T09:42:29.299Z,3.20
2022-11-23T09:45:10.636Z,3.83
2022-11-23T09:47:54.479Z,4.10
2022-11-23T09:50:48.085Z,2.90
2022-11-23T09:53:26.821Z,2.70
2022-11-23T09:55:57.577Z,2.83
2022-11-23T09:58:30.128Z,3.90
2022-11-23T10:01:03.038Z,2.83
2022-11-23T10:03:42.651Z,3.10
2022-11-23T10:06:22.892Z,3.13
2022-11-23T10:09:11.534Z,2.83
2022-11-23T10:12:05.351Z,3.00
2022-11-23T10:14:44.442Z,4.23
2022-11-23T10:17:19.630Z,3.43
2022-11-23T10:20:02.700Z,3.90
2022-11-23T10:22:48.045Z,9.17
2022-11-23T10:25:17.789Z,4.27
2022-11-23T10:27:48.921Z,3.00
2022-11-23T10:30:18.081Z,2.80
2022-11-23T10:33:02.602Z,3.10
2022-11-23T10:35:35.190Z,2.97
2022-11-23T10:38:18.489Z,3.00
2022-11-23T10:41:04.273Z,3.37
2022-11-23T10:43:47.834Z,2.50
2022-11-23T10:46:25.971Z,3.23
2022-11-23T10:48:54.036Z,3.53
2022-11-23T10:51:27.905Z,3.07
2022-11-23T10:54:02.080Z,2.77
2022-11-23T10:56:32.756Z,3.90
2022-11-23T10:58:59.494Z,3.60
2022-11-23T11:01:29.485Z,3.53
2022-11-23T11:04:03.448Z,2.60
2022-11-23T11:06:33.603Z,3.33
2022-11-23T11:09:09.518Z,3.20
2022-11-23T11:11:45.310Z,3.27
2022-11-23T11:14:16.768Z,2.83
2022-11-23T11:16:54.537Z,2.90
2022-11-23T11:19:31.887Z,3.80
2022-11-23T11:22:00.466Z,3.13
2022-11-23T11:24:37.940Z,2.60
2022-11-23T11:27:17.632Z,3.53
2022-11-23T11:29:44.232Z,3.00
2022-11-23T11:32:13.709Z,3.70
2022-11-23T11:34:52.051Z,2.57
2022-11-23T11:37:39.194Z,2.93
2022-11-23T11:40:27.933Z,3.10
2022-11-23T11:43:03.044Z,2.60
2022-11-23T11:45:34.211Z,3.13
2022-11-23T11:48:20.019Z,3.10
2022-11-23T11:51:07.726Z,3.80
2022-11-23T11:53:59.179Z,2.73
2022-11-23T11:56:46.316Z,3.30
2022-11-23T11:59:24.750Z,3.10
2022-11-23T12:01:55.679Z,2.90
2022-11-23T12:04:31.941Z,2.97
2022-11-23T12:07:28.646Z,3.20
2022-11-23T12:10:03.486Z,2.80
2022-11-23T12:12:31.848Z,3.30
2022-11-23T12:14:58.647Z,2.90
2022-11-23T12:17:44.302Z,3.60
2022-11-23T12:20:23.904Z,2.90
2022-11-23T12:23:05.005Z,3.00
2022-11-23T12:25:43.833Z,2.83
2022-11-23T12:28:28.347Z,2.77
2022-11-23T12:31:12.889Z,3.10
2022-11-23T12:34:03.915Z,2.63
2022-11-23T12:36:42.994Z,3.27
2022-11-23T12:39:28.592Z,2.90
2022-11-23T12:42:11.917Z,2.97
2022-11-23T12:45:06.424Z,3.23
2022-11-23T12:48:08.221Z,3.90
2022-11-23T12:50:55.286Z,4.23
2022-11-23T12:53:43.995Z,3.17
2022-11-23T12:56:48.455Z,3.37
2022-11-23T12:59:16.370Z,2.30
2022-11-23T13:01:48.480Z,2.50
2022-11-23T13:04:52.293Z,3.43
2022-11-23T13:07:31.649Z,3.00
2022-11-23T13:10:06.996Z,2.70
2022-11-23T13:13:14.104Z,3.00
2022-11-23T13:16:17.080Z,3.03
2022-11-23T13:19:04.904Z,2.80
2022-11-23T13:21:44.845Z,2.47
2022-11-23T13:24:25.996Z,3.07
2022-11-23T13:27:15.323Z,2.80
2022-11-23T13:29:50.965Z,2.20
2022-11-23T13:32:39.504Z,2.90
2022-11-23T13:35:21.591Z,2.90
2022-11-23T13:37:57.365Z,3.07
2022-11-23T13:40:35.209Z,2.60
2022-11-23T13:43:13.198Z,2.57
2022-11-23T13:45:40.180Z,2.70
2022-11-23T13:48:11.481Z,2.50
2022-11-23T13:50:48.860Z,2.80
2022-11-23T13:53:40.499Z,2.47
2022-11-23T13:56:39.221Z,2.43
2022-11-23T13:59:23.855Z,3.73
2022-11-23T14:02:09.007Z,3.00
2022-11-23T14:04:44.013Z,3.17
2022-11-23T14:07:37.367Z,3.23
2022-11-23T14:10:24.360Z,2.73
2022-11-23T14:13:05.601Z,2.30
2022-11-23T14:15:36.140Z,2.83
2022-11-23T14:18:18.583Z,3.13
2022-11-23T14:21:07.185Z,3.30
2022-11-23T14:24:15.904Z,3.00
2022-11-23T14:27:46.329Z,3.00
2022-11-23T14:30:32.921Z,3.80
2022-11-23T14:33:22.573Z,2.50
2022-11-23T14:36:01.523Z,2.80
2022-11-23T14:39:00.550Z,2.57
2022-11-23T14:41:32.084Z,2.67
2022-11-23T14:44:01.187Z,2.40
2022-11-23T14:46:27.933Z,2.80
2022-11-23T14:49:17.335Z,3.20
2022-11-23T14:51:45.123Z,2.70
2022-11-23T14:54:13.983Z,2.47
2022-11-23T14:56:51.851Z,2.50
2022-11-23T14:59:29.650Z,3.10
2022-11-23T15:02:02.672Z,3.70
2022-11-23T15:04:37.240Z,2.70
2022-11-23T15:07:11.162Z,3.17
2022-11-23T15:09:52.171Z,2.53
2022-11-23T15:12:27.845Z,3.13
2022-11-23T15:14:59.831Z,3.10
2022-11-23T15:17:27.527Z,3.10
2022-11-23T15:20:02.271Z,3.33
2022-11-23T15:22:31.542Z,3.73
2022-11-23T15:25:09.585Z,4.00
2022-11-23T15:27:41.264Z,3.30
2022-11-23T15:30:28.785Z,3.50
2022-11-23T15:33:05.637Z,3.50
2022-11-23T15:35:35.442Z,4.10
2022-11-23T15:38:04.675Z,3.50
2022-11-23T15:40:36.707Z,3.37
2022-11-23T15:43:03.839Z,3.40
2022-11-23T15:45:35.335Z,3.33
2022-11-23T15:48:27.934Z,3.90
2022-11-23T15:51:00.438Z,4.20
2022-11-23T15:53:49.357Z,3.70
2022-11-23T15:56:28.400Z,4.00
2022-11-23T15:58:56.918Z,4.40
2022-11-23T16:01:23.963Z,3.87
2022-11-23T16:03:55.396Z,3.90
2022-11-23T16:06:40.085Z,4.27
2022-11-23T16:09:54.345Z,5.50
2022-11-23T16:12:29.337Z,4.20
2022-11-23T16:14:58.713Z,4.20
2022-11-23T16:17:34.209Z,4.33
2022-11-23T16:20:05.196Z,4.10
2022-11-23T16:22:39.885Z,3.80
2022-11-23T16:25:26.124Z,4.67
2022-11-23T16:28:03.754Z,4.10
2022-11-23T16:30:51.441Z,4.93
2022-11-23T16:33:24.771Z,6.63
2022-11-23T16:36:01.001Z,5.27
2022-11-23T16:38:34.114Z,4.73
2022-11-23T16:41:06.424Z,6.67
2022-11-23T16:43:34.744Z,5.63
2022-11-23T16:46:02.565Z,4.53
2022-11-23T16:48:39.853Z,5.77
2022-11-23T16:51:11.909Z,5.37
2022-11-23T16:54:11.888Z,6.17
2022-11-23T16:56:29.988Z,6.47
2022-11-23T16:58:57.759Z,4.90
2022-11-23T17:01:33.022Z,4.87
2022-11-23T17:04:05.384Z,5.60
2022-11-23T17:06:33.758Z,5.20
2022-11-23T17:09:08.168Z,4.93
2022-11-23T17:11:39.140Z,5.10
2022-11-23T17:14:07.747Z,6.63
2022-11-23T17:16:37.951Z,4.30
2022-11-23T17:19:18.682Z,5.40
2022-11-23T17:21:46.600Z,7.00
2022-11-23T17:24:16.028Z,7.77
2022-11-23T17:26:51.523Z,6.23
2022-11-23T17:29:20.449Z,6.57
2022-11-23T17:31:49.066Z,6.30
2022-11-23T17:34:16.896Z,5.67
2022-11-23T17:36:47.702Z,6.40
2022-11-23T17:39:23.045Z,5.67
2022-11-23T17:41:50.402Z,5.90
2022-11-23T17:44:19.728Z,6.10
2022-11-23T17:46:47.705Z,6.60
2022-11-23T17:49:18.043Z,6.20
2022-11-23T17:51:45.703Z,6.40
2022-11-23T17:54:13.150Z,5.47
2022-11-23T17:56:40.353Z,5.53
2022-11-23T17:59:07.168Z,5.47
2022-11-23T18:01:34.337Z,4.90
2022-11-23T18:04:01.517Z,5.13
2022-11-23T18:06:29.537Z,4.37
2022-11-23T18:09:00.821Z,4.57
2022-11-23T18:11:28.639Z,4.17
2022-11-23T18:13:55.645Z,5.00
2022-11-23T18:16:23.971Z,4.63
2022-11-23T18:18:51.598Z,3.97
2022-11-23T18:21:19.035Z,3.70
2022-11-23T18:23:46.900Z,4.17
2022-11-23T18:26:22.036Z,4.03
2022-11-23T18:28:50.803Z,3.60
2022-11-23T18:31:18.340Z,4.30
2022-11-23T18:33:45.641Z,3.27
2022-11-23T18:36:13.848Z,3.20
2022-11-23T18:38:41.488Z,3.40
2022-11-23T18:41:08.837Z,3.30
2022-11-23T18:43:36.200Z,4.00
2022-11-23T18:46:07.676Z,3.63
2022-11-23T18:48:34.902Z,3.40
2022-11-23T18:51:03.016Z,4.60
2022-11-23T18:53:30.503Z,4.03
2022-11-23T18:56:03.757Z,3.27
2022-11-23T18:58:35.461Z,4.30
2022-11-23T19:01:12.140Z,3.83
2022-11-23T19:03:44.270Z,3.87
2022-11-23T19:06:13.737Z,4.57
2022-11-23T19:08:52.594Z,5.70
2022-11-23T19:11:22.042Z,7.80
2022-11-23T19:13:53.966Z,8.20
2022-11-23T19:16:24.516Z,6.00
2022-11-23T19:19:12.807Z,5.17
2022-11-23T19:21:39.663Z,5.03
2022-11-23T19:24:08.933Z,4.57
2022-11-23T19:26:36.846Z,3.70
2022-11-23T19:29:04.523Z,4.23
2022-11-23T19:31:33.075Z,4.70
2022-11-23T19:34:05.900Z,4.33
2022-11-23T19:36:36.156Z,4.33
2022-11-23T19:39:05.262Z,4.30
2022-11-23T19:41:32.328Z,5.40
2022-11-23T19:44:00.397Z,4.50
2022-11-23T19:46:28.371Z,4.23
2022-11-23T19:48:57.117Z,4.00
2022-11-23T19:51:24.293Z,3.77
2022-11-23T19:53:51.379Z,5.73
2022-11-23T19:56:20.743Z,5.53
2022-11-23T19:58:51.763Z,4.50
2022-11-23T20:01:21.626Z,4.50
2022-11-23T20:03:50.822Z,4.40
2022-11-23T20:06:28.345Z,5.23
2022-11-23T20:08:56.690Z,5.00
2022-11-23T20:11:23.868Z,5.33
2022-11-23T20:13:50.975Z,4.60
2022-11-23T20:16:19.473Z,4.30
2022-11-23T20:18:49.029Z,4.47
2022-11-23T20:21:17.893Z,4.83
2022-11-23T20:23:46.282Z,4.77
2022-11-23T20:26:15.336Z,4.50
2022-11-23T20:28:42.990Z,4.10
2022-11-23T20:31:20.046Z,4.13
2022-11-23T20:33:50.436Z,5.20
2022-11-23T20:36:21.313Z,5.57
2022-11-23T20:38:49.055Z,5.03
2022-11-23T20:41:21.885Z,5.53
2022-11-23T20:43:51.723Z,5.70
2022-11-23T20:46:38.170Z,5.30
2022-11-23T20:49:05.458Z,6.27
2022-11-23T20:51:32.379Z,5.20
2022-11-23T20:53:59.211Z,5.90
2022-11-23T20:56:27.481Z,5.43
2022-11-23T20:58:55.986Z,5.60
2022-11-23T21:01:22.863Z,5.40
2022-11-23T21:03:55.696Z,5.30
2022-11-23T21:06:23.334Z,6.00
2022-11-23T21:08:51.120Z,5.00
2022-11-23T21:11:42.899Z,5.50
2022-11-23T21:14:21.255Z,5.40
2022-11-23T21:16:53.527Z,5.80
2022-11-23T21:19:22.776Z,5.63
2022-11-23T21:21:50.136Z,5.17
2022-11-23T21:24:17.830Z,5.30
2022-11-23T21:26:45.451Z,5.60
2022-11-23T21:29:12.489Z,6.30
2022-11-23T21:31:41.206Z,6.17
2022-11-23T21:34:10.497Z,4.63
2022-11-23T21:36:41.590Z,5.27
2022-11-23T21:39:10.314Z,6.07
2022-11-23T21:41:38.413Z,5.77
2022-11-23T21:44:06.463Z,6.10
2022-11-23T21:46:34.146Z,6.10
2022-11-23T21:49:01.359Z,6.60
2022-11-23T21:51:30.342Z,6.07
2022-11-23T21:53:59.177Z,5.40
2022-11-23T21:56:27.217Z,5.70
2022-11-23T21:58:54.510Z,5.50
2022-11-23T22:01:24.835Z,5.10
2022-11-23T22:04:03.825Z,5.80
2022-11-23T22:06:31.273Z,4.70
2022-11-23T22:08:59.885Z,5.30
2022-11-23T22:11:29.140Z,5.30
2022-11-23T22:14:00.182Z,5.83
2022-11-23T22:16:33.303Z,6.70
2022-11-23T22:19:00.657Z,5.70
2022-11-23T22:21:32.416Z,5.43
2022-11-23T22:23:59.917Z,6.40
2022-11-23T22:26:27.845Z,5.73
2022-11-23T22:28:55.811Z,6.90
2022-11-23T22:31:24.913Z,5.40
2022-11-23T22:33:54.739Z,6.37
2022-11-23T22:36:23.530Z,5.97
2022-11-23T22:39:01.760Z,5.03
2022-11-23T22:41:30.053Z,5.90
2022-11-23T22:43:56.954Z,5.83
2022-11-23T22:46:26.223Z,5.33
2022-11-23T22:48:53.608Z,6.27
2022-11-23T22:51:23.866Z,6.23
2022-11-23T22:53:58.802Z,5.57
2022-11-23T22:56:26.555Z,5.83
2022-11-23T22:58:53.544Z,5.63
2022-11-23T23:01:23.202Z,4.70
2022-11-23T23:03:56.743Z,5.00
2022-11-23T23:06:25.839Z,4.70
2022-11-23T23:08:55.853Z,5.80
2022-11-23T23:11:23.064Z,5.90
2022-11-23T23:13:49.938Z,4.57
2022-11-23T23:16:17.024Z,6.00
2022-11-23T23:18:44.429Z,6.30
2022-11-23T23:21:19.578Z,6.10
2022-11-23T23:23:48.738Z,4.90
2022-11-23T23:26:18.703Z,5.10
2022-11-23T23:28:46.139Z,5.50
2022-11-23T23:31:16.451Z,5.20
2022-11-23T23:33:44.653Z,5.60
2022-11-23T23:36:21.082Z,5.30
2022-11-23T23:38:48.191Z,4.13
2022-11-23T23:41:15.112Z,5.93
2022-11-23T23:43:42.774Z,5.60
2022-11-23T23:46:12.885Z,5.03
2022-11-23T23:48:40.856Z,5.80
2022-11-23T23:51:19.741Z,5.30
2022-11-23T23:53:47.549Z,5.90
2022-11-23T23:56:17.045Z,6.00
2022-11-23T23:58:44.624Z,4.77
